createdAt,value
2018-07-09T00:00:15.781Z,56.51
2018-07-09T00:00:41.924Z,56.48
2018-07-09T00:01:08.131Z,56.7
2018-07-09T00:01:34.274Z,56.99
2018-07-09T00:02:00.407Z,56.87
2018-07-09T00:02:26.597Z,57.09
2018-07-09T00:02:52.735Z,56.77
2018-07-09T00:03:18.878Z,56.77
2018-07-09T00:03:45.013Z,56.67
2018-07-09T00:04:11.169Z,56.77
2018-07-09T00:04:37.315Z,56.96
2018-07-09T00:05:03.450Z,56.96
2018-07-09T00:05:29.633Z,57.06
2018-07-09T00:05:58.800Z,56.77
2018-07-09T00:06:24.946Z,56.67
2018-07-09T00:06:51.086Z,56.67
2018-07-09T00:07:17.273Z,56.96
2018-07-09T00:07:43.414Z,57.15
2018-07-09T00:08:09.548Z,56.96
2018-07-09T00:08:35.689Z,57.25
2018-07-09T00:09:01.826Z,57.25
2018-07-09T00:09:27.972Z,57.06
2018-07-09T00:09:54.109Z,57.54
2018-07-09T00:10:20.283Z,57.54
2018-07-09T00:10:46.426Z,57.54
2018-07-09T00:11:12.564Z,57.54
2018-07-09T00:11:38.728Z,57.45
2018-07-09T00:12:04.869Z,57.35
2018-07-09T00:12:31.013Z,57.54
2018-07-09T00:12:57.170Z,57.45
2018-07-09T00:13:23.311Z,57.54
2018-07-09T00:13:49.466Z,57.45
2018-07-09T00:14:15.637Z,57.54
2018-07-09T00:14:41.793Z,57.45
2018-07-09T00:15:07.916Z,57.54
2018-07-09T00:15:34.052Z,57.06
2018-07-09T00:16:00.193Z,58.02
2018-07-09T00:16:26.331Z,58.02
2018-07-09T00:16:52.494Z,58.02
2018-07-09T00:17:18.634Z,57.25
2018-07-09T00:17:44.796Z,57.54
2018-07-09T00:18:10.930Z,57.73
2018-07-09T00:18:37.069Z,57.45
2018-07-09T00:19:03.207Z,57.83
2018-07-09T00:19:29.397Z,57.92
2018-07-09T00:19:55.534Z,57.92
2018-07-09T00:20:21.670Z,57.64
2018-07-09T00:20:47.804Z,58.4
2018-07-09T00:21:13.943Z,58.31
2018-07-09T00:21:40.084Z,58.31
2018-07-09T00:22:06.245Z,58.12
2018-07-09T00:22:32.397Z,57.92
2018-07-09T00:22:58.538Z,58.12
2018-07-09T00:23:24.672Z,57.83
2018-07-09T00:23:50.836Z,58.02
2018-07-09T00:24:16.976Z,58.22
2018-07-09T00:24:43.113Z,58.22
2018-07-09T00:25:09.246Z,57.83
2018-07-09T00:25:35.409Z,57.83
2018-07-09T00:26:01.574Z,58.89
2018-07-09T00:26:27.708Z,58.22
2018-07-09T00:26:53.841Z,58.89
2018-07-09T00:27:19.981Z,58.5
2018-07-09T00:27:46.123Z,58.4
2018-07-09T00:28:12.266Z,58.37
2018-07-09T00:28:38.402Z,58.5
2018-07-09T00:29:04.549Z,58.5
2018-07-09T00:29:30.692Z,58.47
2018-07-09T00:29:56.841Z,58.57
2018-07-09T00:30:22.986Z,58.47
2018-07-09T00:30:49.119Z,58.67
2018-07-09T00:31:15.258Z,58.67
2018-07-09T00:31:41.395Z,58.47
2018-07-09T00:32:07.557Z,58.76
2018-07-09T00:32:33.709Z,58.76
2018-07-09T00:32:59.845Z,58.86
2018-07-09T00:33:25.978Z,58.57
2018-07-09T00:33:52.120Z,59.15
2018-07-09T00:34:18.254Z,59.15
2018-07-09T00:34:44.392Z,59.15
2018-07-09T00:35:10.557Z,59.15
2018-07-09T00:35:36.714Z,58.67
2018-07-09T00:36:02.864Z,58.95
2018-07-09T00:36:29.025Z,59.15
2018-07-09T00:36:55.203Z,58.95
2018-07-09T00:37:21.345Z,59.15
2018-07-09T00:37:47.488Z,58.76
2018-07-09T00:38:13.628Z,59.15
2018-07-09T00:38:39.769Z,58.86
2018-07-09T00:39:05.905Z,59.24
2018-07-09T00:39:32.042Z,59.05
2018-07-09T00:39:58.175Z,59.15
2018-07-09T00:40:24.319Z,60.01
2018-07-09T00:40:50.507Z,59.72
2018-07-09T00:41:16.647Z,59.53
2018-07-09T00:41:42.776Z,59.82
2018-07-09T00:42:08.921Z,59.82
2018-07-09T00:42:35.060Z,59.63
2018-07-09T00:43:01.198Z,59.34
2018-07-09T00:43:27.359Z,59.44
2018-07-09T00:43:53.498Z,59.53
2018-07-09T00:44:19.636Z,59.72
2018-07-09T00:44:45.818Z,59.63
2018-07-09T00:45:11.971Z,59.72
2018-07-09T00:45:38.116Z,60.11
2018-07-09T00:46:04.251Z,60.01
2018-07-09T00:46:30.392Z,60.11
2018-07-09T00:46:56.557Z,60.46
2018-07-09T00:47:22.713Z,60.46
2018-07-09T00:47:48.859Z,60.66
2018-07-09T00:48:15.011Z,60.49
2018-07-09T00:48:41.149Z,60.39
2018-07-09T00:49:07.288Z,60.56
2018-07-09T00:49:33.424Z,60.75
2018-07-09T00:49:59.560Z,60.37
2018-07-09T00:50:25.705Z,60.56
2018-07-09T00:50:51.855Z,60.46
2018-07-09T00:51:18.022Z,60.37
2018-07-09T00:51:44.161Z,60.85
2018-07-09T00:52:10.298Z,60.56
2018-07-09T00:52:36.439Z,60.17
2018-07-09T00:53:02.571Z,60.75
2018-07-09T00:53:28.710Z,61.04
2018-07-09T00:53:54.840Z,60.94
2018-07-09T00:54:20.985Z,61.23
2018-07-09T00:54:47.163Z,61.33
2018-07-09T00:55:13.303Z,61.04
2018-07-09T00:55:39.461Z,60.94
2018-07-09T00:56:05.597Z,61.33
2018-07-09T00:56:31.760Z,60.94
2018-07-09T00:56:57.901Z,61.23
2018-07-09T00:57:24.067Z,60.94
2018-07-09T00:57:50.237Z,60.75
2018-07-09T00:58:16.393Z,61.04
2018-07-09T00:58:42.530Z,61.23
2018-07-09T00:59:08.661Z,61.33
2018-07-09T00:59:34.800Z,61.33
2018-07-09T01:00:00.982Z,61.91
2018-07-09T01:00:27.122Z,61.91
2018-07-09T01:00:53.257Z,62.19
2018-07-09T01:01:19.395Z,62.1
2018-07-09T01:01:45.525Z,62
2018-07-09T01:02:11.661Z,62.38
2018-07-09T01:02:37.803Z,62.38
2018-07-09T01:03:03.992Z,62.29
2018-07-09T01:03:30.119Z,62.1
2018-07-09T01:03:56.263Z,62.48
2018-07-09T01:04:22.400Z,62.19
2018-07-09T01:04:48.542Z,62.38
2018-07-09T01:05:14.673Z,62.19
2018-07-09T01:05:40.844Z,62.29
2018-07-09T01:06:06.974Z,62.1
2018-07-09T01:06:33.116Z,62.38
2018-07-09T01:06:59.258Z,62.1
2018-07-09T01:07:25.414Z,62.68
2018-07-09T01:07:51.547Z,62.96
2018-07-09T01:08:17.689Z,62.77
2018-07-09T01:08:43.844Z,62.48
2018-07-09T01:09:10.013Z,62.38
2018-07-09T01:09:36.153Z,62.48
2018-07-09T01:10:02.318Z,62.29
2018-07-09T01:10:28.450Z,62.58
2018-07-09T01:10:54.588Z,62.68
2018-07-09T01:11:20.728Z,62.77
2018-07-09T01:11:46.890Z,62.68
2018-07-09T01:12:13.026Z,62.68
2018-07-09T01:12:39.159Z,62.58
2018-07-09T01:13:05.299Z,62.38
2018-07-09T01:13:31.488Z,62.58
2018-07-09T01:13:57.620Z,62.38
2018-07-09T01:14:23.761Z,62.48
2018-07-09T01:14:49.900Z,62.48
2018-07-09T01:15:16.039Z,63.06
2018-07-09T01:15:42.173Z,63.35
2018-07-09T01:16:08.349Z,62.96
2018-07-09T01:16:34.484Z,62.96
2018-07-09T01:17:00.633Z,63.06
2018-07-09T01:17:26.762Z,62.74
2018-07-09T01:17:52.899Z,62.93
2018-07-09T01:18:19.036Z,62.96
2018-07-09T01:18:45.182Z,63.06
2018-07-09T01:19:11.314Z,63.02
2018-07-09T01:19:37.456Z,63.02
2018-07-09T01:20:03.615Z,63.12
2018-07-09T01:20:29.891Z,62.93
2018-07-09T01:20:55.929Z,62.96
2018-07-09T01:21:22.118Z,63.22
2018-07-09T01:21:48.207Z,63.02
2018-07-09T01:22:14.344Z,62.77
2018-07-09T01:22:40.489Z,62.96
2018-07-09T01:23:06.646Z,62.84
2018-07-09T01:23:32.786Z,63.15
2018-07-09T01:23:58.917Z,63.35
2018-07-09T01:24:25.071Z,63.15
2018-07-09T01:24:51.192Z,63.12
2018-07-09T01:25:17.327Z,63.02
2018-07-09T01:25:43.466Z,62.93
2018-07-09T01:26:09.621Z,63.12
2018-07-09T01:26:35.759Z,63.32
2018-07-09T01:27:01.899Z,62.93
2018-07-09T01:27:28.057Z,63.6
2018-07-09T01:27:54.196Z,63.32
2018-07-09T01:28:20.333Z,63.32
2018-07-09T01:28:46.490Z,63.79
2018-07-09T01:29:12.628Z,63.89
2018-07-09T01:29:38.765Z,63.99
2018-07-09T01:30:04.901Z,63.89
2018-07-09T01:30:31.044Z,63.89
2018-07-09T01:30:57.180Z,64.09
2018-07-09T01:31:23.324Z,64.18
2018-07-09T01:31:49.456Z,64.09
2018-07-09T01:32:15.598Z,63.79
2018-07-09T01:32:41.760Z,64.28
2018-07-09T01:33:07.892Z,64.18
2018-07-09T01:33:34.029Z,64.28
2018-07-09T01:34:00.163Z,63.79
2018-07-09T01:34:26.303Z,63.41
2018-07-09T01:34:52.444Z,63.6
2018-07-09T01:35:18.577Z,64.09
2018-07-09T01:35:44.717Z,63.99
2018-07-09T01:36:10.852Z,64.09
2018-07-09T01:36:36.988Z,63.89
2018-07-09T01:37:03.119Z,63.99
2018-07-09T01:37:29.254Z,64.09
2018-07-09T01:37:55.393Z,63.99
2018-07-09T01:38:21.522Z,64.28
2018-07-09T01:38:47.666Z,64.18
2018-07-09T01:39:13.819Z,64.18
2018-07-09T01:39:39.954Z,64.18
2018-07-09T01:40:06.095Z,64.09
2018-07-09T01:40:32.253Z,63.99
2018-07-09T01:40:58.394Z,63.7
2018-07-09T01:41:24.551Z,64.18
2018-07-09T01:41:50.691Z,64.18
2018-07-09T01:42:16.823Z,64.95
2018-07-09T01:42:42.969Z,64.76
2018-07-09T01:43:09.104Z,64.76
2018-07-09T01:43:35.252Z,64.47
2018-07-09T01:44:01.387Z,64.95
2018-07-09T01:44:27.524Z,64.66
2018-07-09T01:44:53.669Z,64.56
2018-07-09T01:45:19.802Z,64.76
2018-07-09T01:45:45.962Z,64.85
2018-07-09T01:46:12.105Z,64.76
2018-07-09T01:46:38.267Z,64.76
2018-07-09T01:47:04.401Z,64.76
2018-07-09T01:47:30.596Z,64.85
2018-07-09T01:47:56.730Z,64.85
2018-07-09T01:48:22.874Z,64.56
2018-07-09T01:48:49.006Z,64.76
2018-07-09T01:49:15.170Z,64.47
2018-07-09T01:49:41.331Z,64.56
2018-07-09T01:50:07.489Z,64.56
2018-07-09T01:50:33.626Z,64.66
2018-07-09T01:50:59.785Z,64.56
2018-07-09T01:51:25.923Z,65.23
2018-07-09T01:51:52.063Z,65.43
2018-07-09T01:52:18.225Z,65.43
2018-07-09T01:52:44.363Z,65.33
2018-07-09T01:53:10.525Z,64.76
2018-07-09T01:53:36.663Z,64.66
2018-07-09T01:54:02.801Z,65.43
2018-07-09T01:54:28.949Z,65.05
2018-07-09T01:54:55.110Z,65.2
2018-07-09T01:55:21.244Z,64.85
2018-07-09T01:55:47.386Z,64.85
2018-07-09T01:56:13.523Z,64.95
2018-07-09T01:56:39.662Z,64.95
2018-07-09T01:57:05.822Z,65.3
2018-07-09T01:57:31.963Z,64.82
2018-07-09T01:57:58.100Z,65.05
2018-07-09T01:58:24.254Z,65.23
2018-07-09T01:58:50.403Z,65.23
2018-07-09T01:59:16.534Z,65.05
2018-07-09T01:59:42.675Z,65.05
2018-07-09T02:00:08.838Z,65.05
2018-07-09T02:00:34.979Z,65.05
2018-07-09T02:01:01.157Z,65.33
2018-07-09T02:01:27.324Z,65.43
2018-07-09T02:01:53.462Z,65.14
2018-07-09T02:02:19.599Z,65.72
2018-07-09T02:02:45.756Z,65.59
2018-07-09T02:03:11.909Z,65.72
2018-07-09T02:03:38.046Z,65.88
2018-07-09T02:04:04.183Z,65.97
2018-07-09T02:04:30.321Z,65.59
2018-07-09T02:04:56.483Z,65.62
2018-07-09T02:05:22.619Z,65.59
2018-07-09T02:05:48.805Z,65.81
2018-07-09T02:06:14.943Z,65.88
2018-07-09T02:06:41.079Z,65.88
2018-07-09T02:07:07.217Z,65.69
2018-07-09T02:07:33.351Z,65.43
2018-07-09T02:07:59.490Z,65.72
2018-07-09T02:08:25.651Z,65.23
2018-07-09T02:08:51.790Z,65.97
2018-07-09T02:09:17.922Z,65.88
2018-07-09T02:09:44.063Z,65.78
2018-07-09T02:10:10.202Z,65.59
2018-07-09T02:10:36.342Z,65.62
2018-07-09T02:11:02.479Z,65.88
2018-07-09T02:11:28.663Z,66.07
2018-07-09T02:11:54.801Z,65.97
2018-07-09T02:12:20.969Z,65.97
2018-07-09T02:12:47.102Z,66.07
2018-07-09T02:13:13.267Z,65.88
2018-07-09T02:13:39.401Z,66.07
2018-07-09T02:14:05.560Z,66.26
2018-07-09T02:14:31.696Z,66.16
2018-07-09T02:14:57.843Z,66.46
2018-07-09T02:15:23.977Z,66.64
2018-07-09T02:15:50.117Z,66.64
2018-07-09T02:16:16.266Z,66.64
2018-07-09T02:16:42.426Z,66.55
2018-07-09T02:17:08.587Z,66.36
2018-07-09T02:17:34.748Z,66.64
2018-07-09T02:18:00.887Z,66.55
2018-07-09T02:18:27.024Z,66.46
2018-07-09T02:18:53.182Z,66.84
2018-07-09T02:19:19.319Z,66.84
2018-07-09T02:19:45.460Z,66.64
2018-07-09T02:20:11.622Z,66.46
2018-07-09T02:20:37.802Z,66.36
2018-07-09T02:21:03.897Z,66.46
2018-07-09T02:21:30.033Z,66.74
2018-07-09T02:21:56.187Z,66.55
2018-07-09T02:22:22.330Z,66.55
2018-07-09T02:22:48.504Z,66.46
2018-07-09T02:23:14.649Z,66.74
2018-07-09T02:23:40.783Z,66.55
2018-07-09T02:24:06.922Z,66.74
2018-07-09T02:24:33.067Z,67.13
2018-07-09T02:24:59.210Z,67.03
2018-07-09T02:25:25.370Z,67.22
2018-07-09T02:25:51.515Z,67.03
2018-07-09T02:26:17.655Z,67.03
2018-07-09T02:26:43.786Z,67.03
2018-07-09T02:27:09.955Z,67.32
2018-07-09T02:27:36.084Z,67.22
2018-07-09T02:28:02.226Z,67.22
2018-07-09T02:28:28.364Z,66.84
2018-07-09T02:28:54.499Z,66.74
2018-07-09T02:29:20.641Z,66.84
2018-07-09T02:29:46.793Z,67.41
2018-07-09T02:30:12.933Z,67.32
2018-07-09T02:30:39.089Z,67.32
2018-07-09T02:31:05.227Z,67.8
2018-07-09T02:31:31.369Z,67.61
2018-07-09T02:31:57.507Z,67.7
2018-07-09T02:32:23.668Z,67.61
2018-07-09T02:32:49.831Z,67.61
2018-07-09T02:33:15.968Z,67.61
2018-07-09T02:33:42.110Z,67.99
2018-07-09T02:34:08.245Z,67.8
2018-07-09T02:34:34.409Z,67.9
2018-07-09T02:35:00.569Z,67.7
2018-07-09T02:35:26.705Z,68.18
2018-07-09T02:35:52.840Z,67.9
2018-07-09T02:36:18.973Z,67.7
2018-07-09T02:36:45.167Z,67.9
2018-07-09T02:37:11.330Z,67.7
2018-07-09T02:37:37.490Z,67.8
2018-07-09T02:38:03.627Z,67.8
2018-07-09T02:38:29.781Z,67.51
2018-07-09T02:38:55.949Z,68.05
2018-07-09T02:39:22.088Z,68.08
2018-07-09T02:39:48.246Z,68.08
2018-07-09T02:40:14.434Z,67.9
2018-07-09T02:40:40.597Z,67.9
2018-07-09T02:41:06.785Z,68.18
2018-07-09T02:41:32.975Z,67.9
2018-07-09T02:41:59.113Z,67.8
2018-07-09T02:42:25.250Z,67.7
2018-07-09T02:42:51.400Z,68.18
2018-07-09T02:43:17.564Z,68.28
2018-07-09T02:43:43.742Z,68.37
2018-07-09T02:44:09.939Z,68.66
2018-07-09T02:44:36.075Z,68.24
2018-07-09T02:45:02.210Z,68.44
2018-07-09T02:45:28.384Z,68.57
2018-07-09T02:45:54.489Z,68.57
2018-07-09T02:46:20.624Z,68.28
2018-07-09T02:46:46.813Z,68.47
2018-07-09T02:47:12.980Z,68.66
2018-07-09T02:47:39.137Z,68.73
2018-07-09T02:48:05.321Z,68.34
2018-07-09T02:48:31.490Z,68.53
2018-07-09T02:48:57.654Z,69.2
2018-07-09T02:49:23.791Z,69.11
2018-07-09T02:49:49.942Z,69.2
2018-07-09T02:50:16.070Z,68.91
2018-07-09T02:50:42.207Z,69.01
2018-07-09T02:51:08.349Z,69.2
2018-07-09T02:51:34.517Z,69.11
2018-07-09T02:52:00.672Z,69.01
2018-07-09T02:52:26.835Z,69.2
2018-07-09T02:52:53.017Z,68.91
2018-07-09T02:53:19.173Z,69.01
2018-07-09T02:53:45.352Z,69.11
2018-07-09T02:54:11.484Z,68.91
2018-07-09T02:54:37.623Z,69.01
2018-07-09T02:55:03.762Z,69.11
2018-07-09T02:55:29.926Z,69.01
2018-07-09T02:55:56.072Z,69.11
2018-07-09T02:56:22.231Z,69.4
2018-07-09T02:56:48.415Z,69.59
2018-07-09T02:57:14.604Z,69.4
2018-07-09T02:57:40.739Z,69.49
2018-07-09T02:58:06.916Z,69.3
2018-07-09T02:58:33.076Z,69.87
2018-07-09T02:58:59.262Z,69.97
2018-07-09T02:59:25.392Z,69.97
2018-07-09T02:59:51.562Z,69.97
2018-07-09T03:00:17.713Z,69.78
2018-07-09T03:00:43.898Z,69.59
2018-07-09T03:01:10.104Z,69.4
2018-07-09T03:01:36.179Z,69.4
2018-07-09T03:02:02.339Z,69.49
2018-07-09T03:02:28.476Z,69.49
2018-07-09T03:02:54.609Z,69.4
2018-07-09T03:03:20.747Z,69.49
2018-07-09T03:03:46.914Z,69.78
2018-07-09T03:04:13.048Z,69.68
2018-07-09T03:04:39.190Z,69.97
2018-07-09T03:05:05.353Z,70.17
2018-07-09T03:05:31.489Z,70.26
2018-07-09T03:05:57.653Z,69.59
2018-07-09T03:06:23.889Z,69.59
2018-07-09T03:06:50.086Z,69.59
2018-07-09T03:07:16.366Z,69.59
2018-07-09T03:07:42.705Z,69.97
2018-07-09T03:08:08.892Z,69.87
2018-07-09T03:08:35.123Z,69.78
2018-07-09T03:09:01.329Z,69.49
2018-07-09T03:09:27.469Z,69.87
2018-07-09T03:09:53.675Z,69.78
2018-07-09T03:10:19.894Z,69.87
2018-07-09T03:10:46.176Z,69.78
2018-07-09T03:11:12.580Z,70.07
2018-07-09T03:11:38.769Z,69.97
2018-07-09T03:12:05.039Z,70.07
2018-07-09T03:12:31.305Z,70.07
2018-07-09T03:12:57.467Z,70.07
2018-07-09T03:13:23.625Z,69.97
2018-07-09T03:13:49.762Z,70.17
2018-07-09T03:14:15.952Z,70.07
2018-07-09T03:14:42.092Z,70.07
2018-07-09T03:15:08.226Z,69.97
2018-07-09T03:15:34.439Z,69.97
2018-07-09T03:16:00.576Z,70.17
2018-07-09T03:16:26.760Z,70.26
2018-07-09T03:16:52.912Z,70.17
2018-07-09T03:17:19.055Z,71.22
2018-07-09T03:17:45.220Z,70.99
2018-07-09T03:18:11.353Z,70.84
2018-07-09T03:18:37.511Z,71.12
2018-07-09T03:19:03.655Z,71.03
2018-07-09T03:19:29.768Z,70.84
2018-07-09T03:19:55.939Z,70.64
2018-07-09T03:20:22.124Z,70.84
2018-07-09T03:20:48.284Z,71.41
2018-07-09T03:21:14.416Z,71.12
2018-07-09T03:21:40.599Z,71.12
2018-07-09T03:22:06.727Z,70.84
2018-07-09T03:22:32.860Z,71.31
2018-07-09T03:22:59.046Z,70.93
2018-07-09T03:23:25.207Z,71.22
2018-07-09T03:23:51.364Z,70.74
2018-07-09T03:24:17.605Z,70.74
2018-07-09T03:24:43.736Z,71.41
2018-07-09T03:25:09.892Z,71.12
2018-07-09T03:25:36.058Z,71.12
2018-07-09T03:26:02.200Z,71.31
2018-07-09T03:26:28.369Z,71.41
2018-07-09T03:26:54.505Z,71.12
2018-07-09T03:27:20.661Z,71.12
2018-07-09T03:27:46.801Z,71.31
2018-07-09T03:28:12.948Z,71.61
2018-07-09T03:28:39.105Z,71.31
2018-07-09T03:29:05.263Z,71.61
2018-07-09T03:29:31.415Z,71.51
2018-07-09T03:29:57.576Z,71.61
2018-07-09T03:30:23.745Z,71.41
2018-07-09T03:30:49.877Z,71.8
2018-07-09T03:31:16.044Z,72.08
2018-07-09T03:31:42.223Z,71.8
2018-07-09T03:32:08.412Z,72.37
2018-07-09T03:32:34.567Z,72.18
2018-07-09T03:33:00.711Z,72.37
2018-07-09T03:33:26.848Z,71.98
2018-07-09T03:33:52.983Z,72.18
2018-07-09T03:34:19.151Z,72.47
2018-07-09T03:34:45.285Z,72.28
2018-07-09T03:35:11.445Z,72.53
2018-07-09T03:35:37.580Z,71.76
2018-07-09T03:36:03.713Z,71.95
2018-07-09T03:36:29.870Z,71.66
2018-07-09T03:36:56.038Z,72.43
2018-07-09T03:37:22.177Z,72.14
2018-07-09T03:37:48.332Z,72.53
2018-07-09T03:38:14.470Z,72.33
2018-07-09T03:38:40.630Z,72.81
2018-07-09T03:39:06.779Z,72.72
2018-07-09T03:39:32.937Z,72.63
2018-07-09T03:39:59.099Z,73.1
2018-07-09T03:40:25.229Z,72.72
2018-07-09T03:40:51.395Z,73
2018-07-09T03:41:17.560Z,73.39
2018-07-09T03:41:43.719Z,73.39
2018-07-09T03:42:09.862Z,73.58
2018-07-09T03:42:36.002Z,73.1
2018-07-09T03:43:02.165Z,73.39
2018-07-09T03:43:28.319Z,73.49
2018-07-09T03:43:54.482Z,72.72
2018-07-09T03:44:20.613Z,72.63
2018-07-09T03:44:46.758Z,72.91
2018-07-09T03:45:12.918Z,73
2018-07-09T03:45:39.078Z,73.39
2018-07-09T03:46:05.217Z,73.68
2018-07-09T03:46:31.361Z,73.68
2018-07-09T03:46:57.524Z,73.49
2018-07-09T03:47:23.665Z,73.49
2018-07-09T03:47:49.806Z,73.3
2018-07-09T03:48:15.936Z,73.49
2018-07-09T03:48:42.097Z,73.52
2018-07-09T03:49:08.264Z,73
2018-07-09T03:49:34.401Z,73.1
2018-07-09T03:50:00.543Z,72.72
2018-07-09T03:50:26.680Z,73
2018-07-09T03:50:52.815Z,72.81
2018-07-09T03:51:18.962Z,73.39
2018-07-09T03:51:45.092Z,73.3
2018-07-09T03:52:11.234Z,73.2
2018-07-09T03:52:37.395Z,73.3
2018-07-09T03:53:03.557Z,73.2
2018-07-09T03:53:29.692Z,73.3
2018-07-09T03:53:55.860Z,73.33
2018-07-09T03:54:21.994Z,73.39
2018-07-09T03:54:48.142Z,73.2
2018-07-09T03:55:14.299Z,73.3
2018-07-09T03:55:40.440Z,73.49
2018-07-09T03:56:06.581Z,73.33
2018-07-09T03:56:32.725Z,73.43
2018-07-09T03:56:58.856Z,73.62
2018-07-09T03:57:24.998Z,73.24
2018-07-09T03:57:51.138Z,72.56
2018-07-09T03:58:17.294Z,72.75
2018-07-09T03:58:43.432Z,73.04
2018-07-09T03:59:09.591Z,72.75
2018-07-09T03:59:35.759Z,73.04
2018-07-09T04:00:01.899Z,72.85
2018-07-09T04:00:28.063Z,73.33
2018-07-09T04:00:54.201Z,73.04
2018-07-09T04:01:20.333Z,72.95
2018-07-09T04:01:46.473Z,73.04
2018-07-09T04:02:12.704Z,72.75
2018-07-09T04:02:38.775Z,72.81
2018-07-09T04:03:04.909Z,72.75
2018-07-09T04:03:31.042Z,72.66
2018-07-09T04:03:57.207Z,73.14
2018-07-09T04:04:23.342Z,72.75
2018-07-09T04:04:49.507Z,72.56
2018-07-09T04:05:15.649Z,72.95
2018-07-09T04:05:41.795Z,73.24
2018-07-09T04:06:07.921Z,73.14
2018-07-09T04:06:34.058Z,73.52
2018-07-09T04:07:00.193Z,73.52
2018-07-09T04:07:26.331Z,73.52
2018-07-09T04:07:52.521Z,73.43
2018-07-09T04:08:18.660Z,73.62
2018-07-09T04:08:44.789Z,73.62
2018-07-09T04:09:10.925Z,73.43
2018-07-09T04:09:37.092Z,73.43
2018-07-09T04:10:03.235Z,73.43
2018-07-09T04:10:29.369Z,73.72
2018-07-09T04:10:55.504Z,73.52
2018-07-09T04:11:21.654Z,73.24
2018-07-09T04:11:47.863Z,73.43
2018-07-09T04:12:14.002Z,73.24
2018-07-09T04:12:40.140Z,73.43
2018-07-09T04:13:06.284Z,73.62
2018-07-09T04:13:32.441Z,73.52
2018-07-09T04:13:58.577Z,73.43
2018-07-09T04:14:24.737Z,73.62
2018-07-09T04:14:50.928Z,73.72
2018-07-09T04:15:17.060Z,73.62
2018-07-09T04:15:43.206Z,73.72
2018-07-09T04:16:09.342Z,73.33
2018-07-09T04:16:35.484Z,73.14
2018-07-09T04:17:01.611Z,73.33
2018-07-09T04:17:27.780Z,73.43
2018-07-09T04:17:53.914Z,73.52
2018-07-09T04:18:20.051Z,73.43
2018-07-09T04:18:46.192Z,73.43
2018-07-09T04:19:12.331Z,73.43
2018-07-09T04:19:38.498Z,73.43
2018-07-09T04:20:04.663Z,73.72
2018-07-09T04:20:30.850Z,73.33
2018-07-09T04:20:57.063Z,73.52
2018-07-09T04:21:23.165Z,73.14
2018-07-09T04:21:49.301Z,73.72
2018-07-09T04:22:15.441Z,73.43
2018-07-09T04:22:41.576Z,74.19
2018-07-09T04:23:07.711Z,74.29
2018-07-09T04:23:33.875Z,74.1
2018-07-09T04:24:00.006Z,74.19
2018-07-09T04:24:26.176Z,74.19
2018-07-09T04:24:52.310Z,74.29
2018-07-09T04:25:18.453Z,74.19
2018-07-09T04:25:44.624Z,74.19
2018-07-09T04:26:10.845Z,74.01
2018-07-09T04:26:36.981Z,74.19
2018-07-09T04:27:03.116Z,74.19
2018-07-09T04:27:29.275Z,74.29
2018-07-09T04:27:55.443Z,74.39
2018-07-09T04:28:21.584Z,74.48
2018-07-09T04:28:47.720Z,74.48
2018-07-09T04:29:13.858Z,73.72
2018-07-09T04:29:39.988Z,73.43
2018-07-09T04:30:06.125Z,74.39
2018-07-09T04:30:32.294Z,73.43
2018-07-09T04:30:58.437Z,74.01
2018-07-09T04:31:24.580Z,74.29
2018-07-09T04:31:50.813Z,74.1
2018-07-09T04:32:16.925Z,74.19
2018-07-09T04:32:43.060Z,74.19
2018-07-09T04:33:09.198Z,74.19
2018-07-09T04:33:35.341Z,74.1
2018-07-09T04:34:01.547Z,74.29
2018-07-09T04:34:27.649Z,74.68
2018-07-09T04:34:53.795Z,74.48
2018-07-09T04:35:19.936Z,74.48
2018-07-09T04:35:46.072Z,74.48
2018-07-09T04:36:12.237Z,74.58
2018-07-09T04:36:38.375Z,74.29
2018-07-09T04:37:04.564Z,74.96
2018-07-09T04:37:30.697Z,74.19
2018-07-09T04:37:56.895Z,74.68
2018-07-09T04:38:22.972Z,74.48
2018-07-09T04:38:49.112Z,74.39
2018-07-09T04:39:15.254Z,74.39
2018-07-09T04:39:41.396Z,74.29
2018-07-09T04:40:07.532Z,74.33
2018-07-09T04:40:33.670Z,74.39
2018-07-09T04:40:59.829Z,74.39
2018-07-09T04:41:25.994Z,74.96
2018-07-09T04:41:52.127Z,74.62
2018-07-09T04:42:18.261Z,74.71
2018-07-09T04:42:44.401Z,74.9
2018-07-09T04:43:10.556Z,74.23
2018-07-09T04:43:36.695Z,73.85
2018-07-09T04:44:02.829Z,74.13
2018-07-09T04:44:28.998Z,73.94
2018-07-09T04:44:55.137Z,74.23
2018-07-09T04:45:21.275Z,74.33
2018-07-09T04:45:47.437Z,74.33
2018-07-09T04:46:13.586Z,74.43
2018-07-09T04:46:39.727Z,74.23
2018-07-09T04:47:05.870Z,74.52
2018-07-09T04:47:32.049Z,73.56
2018-07-09T04:47:58.191Z,73.56
2018-07-09T04:48:24.330Z,73.56
2018-07-09T04:48:50.463Z,73.56
2018-07-09T04:49:16.606Z,73.69
2018-07-09T04:49:42.743Z,72.64
2018-07-09T04:50:08.903Z,72.77
2018-07-09T04:50:35.040Z,72.03
2018-07-09T04:51:01.179Z,71.11
2018-07-09T04:51:27.317Z,69.85
2018-07-09T04:51:53.453Z,68.54
2018-07-09T04:52:19.590Z,67.13
2018-07-09T04:52:45.745Z,66.36
2018-07-09T04:53:11.885Z,64.66
2018-07-09T04:53:38.125Z,63.92
2018-07-09T04:54:04.249Z,63.06
2018-07-09T04:54:30.390Z,61.83
2018-07-09T04:54:56.528Z,61.35
2018-07-09T04:55:22.717Z,60.51
2018-07-09T04:55:48.905Z,59.96
2018-07-09T04:56:15.035Z,58.7
2018-07-09T04:56:41.174Z,58.06
2018-07-09T04:57:07.330Z,57.29
2018-07-09T04:57:33.472Z,57.03
2018-07-09T04:57:59.609Z,56.54
2018-07-09T04:58:25.750Z,55.89
2018-07-09T04:58:51.889Z,55.31
2018-07-09T04:59:18.032Z,55.05
2018-07-09T04:59:44.170Z,55.15
2018-07-09T05:00:10.314Z,53.91
2018-07-09T05:00:36.448Z,53.91
2018-07-09T05:01:02.590Z,52.56
2018-07-09T05:01:28.733Z,52.78
2018-07-09T05:01:54.921Z,51.9
2018-07-09T05:02:21.032Z,51.64
2018-07-09T05:02:47.165Z,50.87
2018-07-09T05:03:13.303Z,50.67
2018-07-09T05:03:39.468Z,50.6
2018-07-09T05:04:05.619Z,49.92
2018-07-09T05:04:31.772Z,49.15
2018-07-09T05:04:57.923Z,49.27
2018-07-09T05:05:24.075Z,49.27
2018-07-09T05:05:50.265Z,48.88
2018-07-09T05:06:16.409Z,47.93
2018-07-09T05:06:42.541Z,48
2018-07-09T05:07:08.685Z,47.74
2018-07-09T05:07:34.819Z,47.93
2018-07-09T05:08:00.954Z,47.45
2018-07-09T05:08:27.087Z,47.74
2018-07-09T05:08:53.228Z,47.55
2018-07-09T05:09:19.365Z,47.74
2018-07-09T05:09:45.535Z,47.55
2018-07-09T05:10:11.671Z,47.55
2018-07-09T05:10:37.827Z,47.64
2018-07-09T05:11:03.969Z,47.25
2018-07-09T05:11:30.105Z,47.74
2018-07-09T05:11:56.235Z,47.83
2018-07-09T05:12:22.384Z,47.72
2018-07-09T05:12:48.579Z,47.91
2018-07-09T05:13:14.747Z,48.59
2018-07-09T05:13:40.903Z,49.15
2018-07-09T05:14:07.048Z,49.15
2018-07-09T05:14:33.186Z,49.24
2018-07-09T05:14:59.323Z,49.41
2018-07-09T05:15:25.459Z,49.8
2018-07-09T05:15:51.597Z,50.48
2018-07-09T05:16:17.738Z,50.19
2018-07-09T05:16:43.873Z,50.65
2018-07-09T05:17:10.014Z,50.94
2018-07-09T05:17:36.153Z,51.42
2018-07-09T05:18:02.291Z,51.62
2018-07-09T05:18:28.453Z,51.68
2018-07-09T05:18:54.599Z,52.08
2018-07-09T05:19:20.735Z,52.66
2018-07-09T05:19:46.872Z,51.98
2018-07-09T05:20:13.039Z,52.53
2018-07-09T05:20:39.231Z,53.11
2018-07-09T05:21:05.316Z,53.21
2018-07-09T05:21:31.460Z,53.79
2018-07-09T05:21:57.592Z,54.05
2018-07-09T05:22:23.732Z,54.25
2018-07-09T05:22:49.867Z,54.53
2018-07-09T05:23:16.008Z,54.44
2018-07-09T05:23:42.146Z,55.09
2018-07-09T05:24:08.310Z,55.57
2018-07-09T05:24:34.454Z,55.77
2018-07-09T05:25:00.592Z,55.93
2018-07-09T05:25:26.732Z,56.22
2018-07-09T05:25:52.873Z,57.35
2018-07-09T05:26:19.036Z,57.26
2018-07-09T05:26:45.177Z,57.35
2018-07-09T05:27:11.313Z,58
2018-07-09T05:27:37.448Z,58.39
2018-07-09T05:28:03.618Z,58.77
2018-07-09T05:28:29.754Z,58.97
2018-07-09T05:28:55.895Z,58.97
2018-07-09T05:29:22.036Z,59.16
2018-07-09T05:29:48.171Z,58.87
2018-07-09T05:30:14.311Z,60.13
2018-07-09T05:30:40.441Z,59.71
2018-07-09T05:31:06.581Z,60.1
2018-07-09T05:31:32.722Z,60.28
2018-07-09T05:31:58.862Z,60.58
2018-07-09T05:32:24.995Z,60.68
2018-07-09T05:32:51.133Z,60.86
2018-07-09T05:33:17.362Z,60.58
2018-07-09T05:33:43.469Z,60.68
2018-07-09T05:34:09.630Z,60.86
2018-07-09T05:34:35.769Z,60.68
2018-07-09T05:35:01.925Z,60.86
2018-07-09T05:35:28.088Z,60.96
2018-07-09T05:35:54.250Z,60.96
2018-07-09T05:36:20.412Z,60.96
2018-07-09T05:36:46.551Z,60.77
2018-07-09T05:37:12.709Z,61.16
2018-07-09T05:37:38.852Z,61.16
2018-07-09T05:38:05.005Z,61.06